sensor_id;sensor_type;location;lat;lon;timestamp;temperature;humidity
19050;DHT22;9657;45.940;12.840;2023-03-31T00:01:34;15.40;66.50
19050;DHT22;9657;45.940;12.840;2023-03-31T00:04:08;15.40;66.50
19050;DHT22;9657;45.940;12.840;2023-03-31T00:06:39;15.40;66.50
19050;DHT22;9657;45.940;12.840;2023-03-31T00:09:08;15.40;66.50
19050;DHT22;9657;45.940;12.840;2023-03-31T00:11:36;15.40;66.50
19050;DHT22;9657;45.940;12.840;2023-03-31T00:14:03;15.40;66.50
19050;DHT22;9657;45.940;12.840;2023-03-31T00:16:31;15.40;66.60
19050;DHT22;9657;45.940;12.840;2023-03-31T00:18:58;15.40;66.50
19050;DHT22;9657;45.940;12.840;2023-03-31T00:21:28;15.40;66.50
19050;DHT22;9657;45.940;12.840;2023-03-31T00:23:59;15.40;66.50
19050;DHT22;9657;45.940;12.840;2023-03-31T00:26:27;15.40;66.60
19050;DHT22;9657;45.940;12.840;2023-03-31T00:28:54;15.40;66.60
19050;DHT22;9657;45.940;12.840;2023-03-31T00:31:21;15.40;66.60
19050;DHT22;9657;45.940;12.840;2023-03-31T00:33:49;15.40;66.60
19050;DHT22;9657;45.940;12.840;2023-03-31T00:36:17;15.40;66.60
19050;DHT22;9657;45.940;12.840;2023-03-31T00:38:47;15.40;66.60
19050;DHT22;9657;45.940;12.840;2023-03-31T00:41:16;15.40;66.60
19050;DHT22;9657;45.940;12.840;2023-03-31T00:43:59;15.40;66.60
19050;DHT22;9657;45.940;12.840;2023-03-31T00:46:30;15.40;66.60
19050;DHT22;9657;45.940;12.840;2023-03-31T00:48:58;15.40;66.60
19050;DHT22;9657;45.940;12.840;2023-03-31T00:51:28;15.40;66.60
19050;DHT22;9657;45.940;12.840;2023-03-31T00:54:00;15.40;66.60
19050;DHT22;9657;45.940;12.840;2023-03-31T00:56:32;15.40;66.60
19050;DHT22;9657;45.940;12.840;2023-03-31T00:59:02;15.40;66.60
19050;DHT22;9657;45.940;12.840;2023-03-31T01:04:08;15.40;67.40
19050;DHT22;9657;45.940;12.840;2023-03-31T01:06:38;15.40;66.70
19050;DHT22;9657;45.940;12.840;2023-03-31T01:09:14;15.40;66.70
19050;DHT22;9657;45.940;12.840;2023-03-31T01:11:43;15.40;66.70
19050;DHT22;9657;45.940;12.840;2023-03-31T01:14:11;15.40;66.70
19050;DHT22;9657;45.940;12.840;2023-03-31T01:16:38;15.40;66.70
19050;DHT22;9657;45.940;12.840;2023-03-31T01:19:12;15.40;66.70
19050;DHT22;9657;45.940;12.840;2023-03-31T01:22:03;15.40;66.70
19050;DHT22;9657;45.940;12.840;2023-03-31T01:25:07;15.40;66.80
19050;DHT22;9657;45.940;12.840;2023-03-31T01:31:02;15.40;66.70
19050;DHT22;9657;45.940;12.840;2023-03-31T01:34:00;15.40;66.70
19050;DHT22;9657;45.940;12.840;2023-03-31T01:42:35;15.40;66.70
19050;DHT22;9657;45.940;12.840;2023-03-31T01:45:12;15.40;66.70
19050;DHT22;9657;45.940;12.840;2023-03-31T01:47:45;15.40;66.70
19050;DHT22;9657;45.940;12.840;2023-03-31T01:50:21;15.40;66.70
19050;DHT22;9657;45.940;12.840;2023-03-31T01:52:57;15.40;66.80
19050;DHT22;9657;45.940;12.840;2023-03-31T01:55:29;15.40;66.80
19050;DHT22;9657;45.940;12.840;2023-03-31T01:58:06;15.40;67.60
19050;DHT22;9657;45.940;12.840;2023-03-31T02:00:39;15.40;66.70
19050;DHT22;9657;45.940;12.840;2023-03-31T02:03:11;15.40;66.80
19050;DHT22;9657;45.940;12.840;2023-03-31T02:05:44;15.40;66.80
19050;DHT22;9657;45.940;12.840;2023-03-31T02:08:14;15.40;66.80
19050;DHT22;9657;45.940;12.840;2023-03-31T02:10:44;15.40;66.70
19050;DHT22;9657;45.940;12.840;2023-03-31T02:13:15;15.40;66.80
19050;DHT22;9657;45.940;12.840;2023-03-31T02:15:46;15.40;66.80
19050;DHT22;9657;45.940;12.840;2023-03-31T02:18:19;15.40;66.80
19050;DHT22;9657;45.940;12.840;2023-03-31T02:20:53;15.40;66.80
19050;DHT22;9657;45.940;12.840;2023-03-31T02:23:23;15.40;66.80
19050;DHT22;9657;45.940;12.840;2023-03-31T02:25:58;15.40;66.80
19050;DHT22;9657;45.940;12.840;2023-03-31T02:28:28;15.40;66.80
19050;DHT22;9657;45.940;12.840;2023-03-31T02:31:05;15.40;66.80
19050;DHT22;9657;45.940;12.840;2023-03-31T02:33:33;15.40;66.80
19050;DHT22;9657;45.940;12.840;2023-03-31T02:36:01;15.40;66.80
19050;DHT22;9657;45.940;12.840;2023-03-31T02:38:32;15.40;66.80
19050;DHT22;9657;45.940;12.840;2023-03-31T02:41:01;15.40;66.80
19050;DHT22;9657;45.940;12.840;2023-03-31T02:43:30;15.40;66.90
19050;DHT22;9657;45.940;12.840;2023-03-31T02:45:57;15.40;67.00
19050;DHT22;9657;45.940;12.840;2023-03-31T02:48:26;15.40;66.90
19050;DHT22;9657;45.940;12.840;2023-03-31T02:51:18;15.40;67.00
19050;DHT22;9657;45.940;12.840;2023-03-31T02:54:01;15.40;67.00
19050;DHT22;9657;45.940;12.840;2023-03-31T02:56:44;15.40;66.90
19050;DHT22;9657;45.940;12.840;2023-03-31T02:59:32;15.40;66.90
19050;DHT22;9657;45.940;12.840;2023-03-31T03:02:08;15.40;66.90
19050;DHT22;9657;45.940;12.840;2023-03-31T03:05:07;15.40;67.00
19050;DHT22;9657;45.940;12.840;2023-03-31T03:07:44;15.40;67.00
19050;DHT22;9657;45.940;12.840;2023-03-31T03:10:16;15.40;67.00
19050;DHT22;9657;45.940;12.840;2023-03-31T03:12:54;15.40;67.00
19050;DHT22;9657;45.940;12.840;2023-03-31T03:15:29;15.40;67.00
19050;DHT22;9657;45.940;12.840;2023-03-31T03:17:57;15.40;67.00
19050;DHT22;9657;45.940;12.840;2023-03-31T03:20:24;15.40;67.00
19050;DHT22;9657;45.940;12.840;2023-03-31T03:22:51;15.30;66.90
19050;DHT22;9657;45.940;12.840;2023-03-31T03:25:19;15.30;67.00
19050;DHT22;9657;45.940;12.840;2023-03-31T03:27:46;15.30;67.00
19050;DHT22;9657;45.940;12.840;2023-03-31T03:30:13;15.40;67.00
19050;DHT22;9657;45.940;12.840;2023-03-31T03:32:42;15.40;67.80
19050;DHT22;9657;45.940;12.840;2023-03-31T03:35:09;15.30;67.00
19050;DHT22;9657;45.940;12.840;2023-03-31T03:37:37;15.40;67.00
19050;DHT22;9657;45.940;12.840;2023-03-31T03:40:05;15.40;67.00
19050;DHT22;9657;45.940;12.840;2023-03-31T03:42:33;15.40;67.00
19050;DHT22;9657;45.940;12.840;2023-03-31T03:45:00;15.40;67.00
19050;DHT22;9657;45.940;12.840;2023-03-31T03:47:27;15.40;67.00
19050;DHT22;9657;45.940;12.840;2023-03-31T03:49:56;15.40;67.10
19050;DHT22;9657;45.940;12.840;2023-03-31T03:52:23;15.40;67.10
19050;DHT22;9657;45.940;12.840;2023-03-31T03:54:50;15.40;67.00
19050;DHT22;9657;45.940;12.840;2023-03-31T03:57:17;15.40;67.10
19050;DHT22;9657;45.940;12.840;2023-03-31T03:59:44;15.40;67.10
19050;DHT22;9657;45.940;12.840;2023-03-31T04:02:11;15.40;67.10
19050;DHT22;9657;45.940;12.840;2023-03-31T04:04:38;15.30;67.10
19050;DHT22;9657;45.940;12.840;2023-03-31T04:07:06;15.40;67.10
19050;DHT22;9657;45.940;12.840;2023-03-31T04:09:33;15.30;67.10
19050;DHT22;9657;45.940;12.840;2023-03-31T04:12:00;15.40;67.10
19050;DHT22;9657;45.940;12.840;2023-03-31T04:14:28;15.40;67.10
19050;DHT22;9657;45.940;12.840;2023-03-31T04:16:55;15.40;67.10
19050;DHT22;9657;45.940;12.840;2023-03-31T04:19:23;15.30;67.00
19050;DHT22;9657;45.940;12.840;2023-03-31T04:21:50;15.40;67.10
19050;DHT22;9657;45.940;12.840;2023-03-31T04:24:24;15.40;67.10
19050;DHT22;9657;45.940;12.840;2023-03-31T04:26:55;15.40;67.90
19050;DHT22;9657;45.940;12.840;2023-03-31T04:29:22;15.40;67.10
19050;DHT22;9657;45.940;12.840;2023-03-31T04:31:51;15.40;67.10
19050;DHT22;9657;45.940;12.840;2023-03-31T04:34:18;15.30;67.10
19050;DHT22;9657;45.940;12.840;2023-03-31T04:36:52;15.40;67.10
19050;DHT22;9657;45.940;12.840;2023-03-31T04:39:21;15.40;67.20
19050;DHT22;9657;45.940;12.840;2023-03-31T04:41:52;15.40;67.10
19050;DHT22;9657;45.940;12.840;2023-03-31T04:44:19;15.40;67.10
19050;DHT22;9657;45.940;12.840;2023-03-31T04:46:46;15.30;67.10
19050;DHT22;9657;45.940;12.840;2023-03-31T04:49:13;15.40;67.20
19050;DHT22;9657;45.940;12.840;2023-03-31T04:51:40;15.40;67.20
19050;DHT22;9657;45.940;12.840;2023-03-31T04:54:09;15.30;67.20
19050;DHT22;9657;45.940;12.840;2023-03-31T04:56:36;15.30;67.20
19050;DHT22;9657;45.940;12.840;2023-03-31T04:59:05;15.30;67.30
19050;DHT22;9657;45.940;12.840;2023-03-31T05:01:33;15.30;67.30
19050;DHT22;9657;45.940;12.840;2023-03-31T05:04:01;15.40;67.40
19050;DHT22;9657;45.940;12.840;2023-03-31T05:06:28;15.30;67.30
19050;DHT22;9657;45.940;12.840;2023-03-31T05:08:55;15.30;67.30
19050;DHT22;9657;45.940;12.840;2023-03-31T05:11:22;15.30;67.30
19050;DHT22;9657;45.940;12.840;2023-03-31T05:13:50;15.40;67.50
19050;DHT22;9657;45.940;12.840;2023-03-31T05:16:19;15.40;67.50
19050;DHT22;9657;45.940;12.840;2023-03-31T05:18:46;15.30;67.40
19050;DHT22;9657;45.940;12.840;2023-03-31T05:21:14;15.40;67.50
19050;DHT22;9657;45.940;12.840;2023-03-31T05:23:42;15.30;67.50
19050;DHT22;9657;45.940;12.840;2023-03-31T05:26:09;15.30;67.50
19050;DHT22;9657;45.940;12.840;2023-03-31T05:28:36;15.30;67.40
19050;DHT22;9657;45.940;12.840;2023-03-31T05:31:05;15.30;67.40
19050;DHT22;9657;45.940;12.840;2023-03-31T05:33:34;15.40;67.50
19050;DHT22;9657;45.940;12.840;2023-03-31T05:36:05;15.30;67.40
19050;DHT22;9657;45.940;12.840;2023-03-31T05:38:32;15.30;67.50
19050;DHT22;9657;45.940;12.840;2023-03-31T05:41:00;15.30;67.50
19050;DHT22;9657;45.940;12.840;2023-03-31T05:43:27;15.30;67.50
19050;DHT22;9657;45.940;12.840;2023-03-31T05:45:54;15.30;67.50
19050;DHT22;9657;45.940;12.840;2023-03-31T05:48:21;15.30;67.50
19050;DHT22;9657;45.940;12.840;2023-03-31T05:50:49;15.40;67.50
19050;DHT22;9657;45.940;12.840;2023-03-31T05:53:16;15.30;67.50
19050;DHT22;9657;45.940;12.840;2023-03-31T05:55:43;15.30;67.50
19050;DHT22;9657;45.940;12.840;2023-03-31T05:58:10;15.30;67.50
19050;DHT22;9657;45.940;12.840;2023-03-31T06:00:37;15.30;67.50
19050;DHT22;9657;45.940;12.840;2023-03-31T06:03:04;15.30;67.50
19050;DHT22;9657;45.940;12.840;2023-03-31T06:05:33;15.30;67.50
19050;DHT22;9657;45.940;12.840;2023-03-31T06:08:01;15.30;67.50
19050;DHT22;9657;45.940;12.840;2023-03-31T06:10:28;15.30;67.50
19050;DHT22;9657;45.940;12.840;2023-03-31T06:12:56;15.30;67.50
19050;DHT22;9657;45.940;12.840;2023-03-31T06:15:23;15.40;67.50
19050;DHT22;9657;45.940;12.840;2023-03-31T06:17:50;15.30;67.50
19050;DHT22;9657;45.940;12.840;2023-03-31T06:20:17;15.30;67.50
19050;DHT22;9657;45.940;12.840;2023-03-31T06:22:44;15.30;67.40
19050;DHT22;9657;45.940;12.840;2023-03-31T06:25:12;15.30;67.50
19050;DHT22;9657;45.940;12.840;2023-03-31T06:27:39;15.30;67.50
19050;DHT22;9657;45.940;12.840;2023-03-31T06:30:07;15.40;67.50
19050;DHT22;9657;45.940;12.840;2023-03-31T06:32:35;15.30;67.50
19050;DHT22;9657;45.940;12.840;2023-03-31T06:35:02;15.40;67.50
19050;DHT22;9657;45.940;12.840;2023-03-31T06:37:29;15.30;67.50
19050;DHT22;9657;45.940;12.840;2023-03-31T06:39:56;15.30;67.50
19050;DHT22;9657;45.940;12.840;2023-03-31T06:42:24;15.30;68.30
19050;DHT22;9657;45.940;12.840;2023-03-31T06:44:51;15.30;67.50
19050;DHT22;9657;45.940;12.840;2023-03-31T06:47:20;15.30;67.50
19050;DHT22;9657;45.940;12.840;2023-03-31T06:49:47;15.30;67.50
19050;DHT22;9657;45.940;12.840;2023-03-31T06:52:14;15.40;67.50
19050;DHT22;9657;45.940;12.840;2023-03-31T06:54:41;15.30;67.40
19050;DHT22;9657;45.940;12.840;2023-03-31T06:57:08;15.40;67.50
19050;DHT22;9657;45.940;12.840;2023-03-31T06:59:36;15.30;67.50
19050;DHT22;9657;45.940;12.840;2023-03-31T07:02:03;15.40;67.50
19050;DHT22;9657;45.940;12.840;2023-03-31T07:04:30;15.40;67.60
19050;DHT22;9657;45.940;12.840;2023-03-31T07:06:57;15.30;67.40
19050;DHT22;9657;45.940;12.840;2023-03-31T07:09:24;15.40;67.50
19050;DHT22;9657;45.940;12.840;2023-03-31T07:11:51;15.40;67.50
19050;DHT22;9657;45.940;12.840;2023-03-31T07:14:18;15.30;67.50
19050;DHT22;9657;45.940;12.840;2023-03-31T07:16:48;15.30;67.50
19050;DHT22;9657;45.940;12.840;2023-03-31T07:19:16;15.40;67.50
19050;DHT22;9657;45.940;12.840;2023-03-31T07:21:43;15.30;67.50
19050;DHT22;9657;45.940;12.840;2023-03-31T07:24:10;15.30;67.50
19050;DHT22;9657;45.940;12.840;2023-03-31T07:26:38;15.30;67.50
19050;DHT22;9657;45.940;12.840;2023-03-31T07:29:05;15.30;67.50
19050;DHT22;9657;45.940;12.840;2023-03-31T07:31:32;15.40;67.60
19050;DHT22;9657;45.940;12.840;2023-03-31T07:34:00;15.30;67.50
19050;DHT22;9657;45.940;12.840;2023-03-31T07:36:27;15.30;67.50
19050;DHT22;9657;45.940;12.840;2023-03-31T07:38:56;15.40;67.60
19050;DHT22;9657;45.940;12.840;2023-03-31T07:41:23;15.40;67.60
19050;DHT22;9657;45.940;12.840;2023-03-31T07:43:51;15.40;67.50
19050;DHT22;9657;45.940;12.840;2023-03-31T07:46:20;15.30;67.50
19050;DHT22;9657;45.940;12.840;2023-03-31T07:48:48;15.40;67.50
19050;DHT22;9657;45.940;12.840;2023-03-31T07:51:19;15.40;67.50
19050;DHT22;9657;45.940;12.840;2023-03-31T07:53:47;15.30;67.50
19050;DHT22;9657;45.940;12.840;2023-03-31T07:56:16;15.40;67.50
19050;DHT22;9657;45.940;12.840;2023-03-31T07:58:44;15.40;67.60
19050;DHT22;9657;45.940;12.840;2023-03-31T08:01:13;15.40;67.60
19050;DHT22;9657;45.940;12.840;2023-03-31T08:03:42;15.40;67.60
19050;DHT22;9657;45.940;12.840;2023-03-31T08:06:09;15.30;68.30
19050;DHT22;9657;45.940;12.840;2023-03-31T08:08:38;15.30;67.50
19050;DHT22;9657;45.940;12.840;2023-03-31T08:11:07;15.40;67.50
19050;DHT22;9657;45.940;12.840;2023-03-31T08:13:35;15.40;67.50
19050;DHT22;9657;45.940;12.840;2023-03-31T08:16:02;15.40;67.60
19050;DHT22;9657;45.940;12.840;2023-03-31T08:18:29;15.40;67.60
19050;DHT22;9657;45.940;12.840;2023-03-31T08:20:56;15.40;67.60
19050;DHT22;9657;45.940;12.840;2023-03-31T08:23:23;15.40;67.60
19050;DHT22;9657;45.940;12.840;2023-03-31T08:25:51;15.30;67.50
19050;DHT22;9657;45.940;12.840;2023-03-31T08:28:18;15.30;67.50
19050;DHT22;9657;45.940;12.840;2023-03-31T08:30:45;15.30;67.50
19050;DHT22;9657;45.940;12.840;2023-03-31T08:33:12;15.40;67.60
19050;DHT22;9657;45.940;12.840;2023-03-31T08:35:39;15.40;67.50
19050;DHT22;9657;45.940;12.840;2023-03-31T08:38:06;15.40;67.60
19050;DHT22;9657;45.940;12.840;2023-03-31T08:40:33;15.40;67.50
19050;DHT22;9657;45.940;12.840;2023-03-31T08:43:07;15.40;67.60
19050;DHT22;9657;45.940;12.840;2023-03-31T08:45:40;15.40;67.60
19050;DHT22;9657;45.940;12.840;2023-03-31T08:48:17;15.30;67.50
19050;DHT22;9657;45.940;12.840;2023-03-31T08:50:49;15.40;67.60
19050;DHT22;9657;45.940;12.840;2023-03-31T08:53:23;15.40;67.60
19050;DHT22;9657;45.940;12.840;2023-03-31T08:55:51;15.30;67.50
19050;DHT22;9657;45.940;12.840;2023-03-31T08:58:29;15.40;67.60
19050;DHT22;9657;45.940;12.840;2023-03-31T09:01:01;15.40;67.60
19050;DHT22;9657;45.940;12.840;2023-03-31T09:03:33;15.40;67.60
19050;DHT22;9657;45.940;12.840;2023-03-31T09:06:08;15.40;67.60
19050;DHT22;9657;45.940;12.840;2023-03-31T09:08:38;15.40;67.60
19050;DHT22;9657;45.940;12.840;2023-03-31T09:11:13;15.40;67.60
19050;DHT22;9657;45.940;12.840;2023-03-31T09:14:12;15.40;67.60
19050;DHT22;9657;45.940;12.840;2023-03-31T09:16:47;15.40;67.70
19050;DHT22;9657;45.940;12.840;2023-03-31T09:19:23;15.40;67.60
19050;DHT22;9657;45.940;12.840;2023-03-31T09:21:54;15.40;67.60
19050;DHT22;9657;45.940;12.840;2023-03-31T09:24:24;15.30;67.50
19050;DHT22;9657;45.940;12.840;2023-03-31T09:26:56;15.40;67.60
19050;DHT22;9657;45.940;12.840;2023-03-31T09:29:29;15.40;67.60
19050;DHT22;9657;45.940;12.840;2023-03-31T09:32:01;15.40;67.60
19050;DHT22;9657;45.940;12.840;2023-03-31T09:34:35;15.40;67.60
19050;DHT22;9657;45.940;12.840;2023-03-31T09:37:02;15.40;67.60
19050;DHT22;9657;45.940;12.840;2023-03-31T09:39:29;15.40;67.60
19050;DHT22;9657;45.940;12.840;2023-03-31T09:41:57;15.30;67.50
19050;DHT22;9657;45.940;12.840;2023-03-31T09:44:30;15.40;67.60
19050;DHT22;9657;45.940;12.840;2023-03-31T09:47:00;15.30;67.50
19050;DHT22;9657;45.940;12.840;2023-03-31T09:49:32;15.40;67.60
19050;DHT22;9657;45.940;12.840;2023-03-31T09:52:03;15.40;67.60
19050;DHT22;9657;45.940;12.840;2023-03-31T09:54:36;15.30;67.50
19050;DHT22;9657;45.940;12.840;2023-03-31T09:57:13;15.40;67.60
19050;DHT22;9657;45.940;12.840;2023-03-31T09:59:42;15.40;67.60
19050;DHT22;9657;45.940;12.840;2023-03-31T10:02:28;15.40;67.60
19050;DHT22;9657;45.940;12.840;2023-03-31T10:04:59;15.40;67.60
19050;DHT22;9657;45.940;12.840;2023-03-31T10:07:27;15.40;67.60
19050;DHT22;9657;45.940;12.840;2023-03-31T10:09:54;15.40;67.60
19050;DHT22;9657;45.940;12.840;2023-03-31T10:12:24;15.40;67.60
19050;DHT22;9657;45.940;12.840;2023-03-31T10:15:17;15.40;67.60
19050;DHT22;9657;45.940;12.840;2023-03-31T10:17:43;15.40;67.50
19050;DHT22;9657;45.940;12.840;2023-03-31T10:20:19;15.40;67.50
19050;DHT22;9657;45.940;12.840;2023-03-31T10:22:46;15.40;67.60
19050;DHT22;9657;45.940;12.840;2023-03-31T10:25:16;15.40;67.60
19050;DHT22;9657;45.940;12.840;2023-03-31T10:27:46;15.40;67.60
19050;DHT22;9657;45.940;12.840;2023-03-31T10:30:20;15.40;67.60
19050;DHT22;9657;45.940;12.840;2023-03-31T10:32:48;15.40;67.60
19050;DHT22;9657;45.940;12.840;2023-03-31T10:35:23;15.40;67.60
19050;DHT22;9657;45.940;12.840;2023-03-31T10:37:55;15.40;67.60
19050;DHT22;9657;45.940;12.840;2023-03-31T10:40:24;15.40;67.60
19050;DHT22;9657;45.940;12.840;2023-03-31T10:43:02;15.40;67.60
19050;DHT22;9657;45.940;12.840;2023-03-31T10:45:37;15.40;67.60
19050;DHT22;9657;45.940;12.840;2023-03-31T10:48:05;15.40;67.60
19050;DHT22;9657;45.940;12.840;2023-03-31T10:50:42;15.40;67.60
19050;DHT22;9657;45.940;12.840;2023-03-31T10:53:12;15.40;67.60
19050;DHT22;9657;45.940;12.840;2023-03-31T10:55:47;15.40;67.60
19050;DHT22;9657;45.940;12.840;2023-03-31T10:58:26;15.40;67.60
19050;DHT22;9657;45.940;12.840;2023-03-31T11:01:08;15.40;67.70
19050;DHT22;9657;45.940;12.840;2023-03-31T11:03:59;15.40;67.60
19050;DHT22;9657;45.940;12.840;2023-03-31T11:06:36;15.40;67.60
19050;DHT22;9657;45.940;12.840;2023-03-31T11:09:13;15.40;67.60
19050;DHT22;9657;45.940;12.840;2023-03-31T11:11:52;15.40;67.60
19050;DHT22;9657;45.940;12.840;2023-03-31T11:14:30;15.40;67.70
19050;DHT22;9657;45.940;12.840;2023-03-31T11:17:06;15.40;67.60
19050;DHT22;9657;45.940;12.840;2023-03-31T11:19:42;15.40;67.60
19050;DHT22;9657;45.940;12.840;2023-03-31T11:22:14;15.40;67.60
19050;DHT22;9657;45.940;12.840;2023-03-31T11:25:05;15.40;67.60
19050;DHT22;9657;45.940;12.840;2023-03-31T11:27:48;15.40;67.60
19050;DHT22;9657;45.940;12.840;2023-03-31T11:30:21;15.40;67.70
19050;DHT22;9657;45.940;12.840;2023-03-31T11:33:04;15.40;67.60
19050;DHT22;9657;45.940;12.840;2023-03-31T11:35:43;15.40;67.60
19050;DHT22;9657;45.940;12.840;2023-03-31T11:38:34;15.40;67.70
19050;DHT22;9657;45.940;12.840;2023-03-31T11:41:08;15.40;67.70
19050;DHT22;9657;45.940;12.840;2023-03-31T11:43:42;15.40;67.70
19050;DHT22;9657;45.940;12.840;2023-03-31T11:46:12;15.40;67.70
19050;DHT22;9657;45.940;12.840;2023-03-31T11:48:45;15.40;67.70
19050;DHT22;9657;45.940;12.840;2023-03-31T11:51:17;15.40;67.70
19050;DHT22;9657;45.940;12.840;2023-03-31T11:53:46;15.40;67.70
19050;DHT22;9657;45.940;12.840;2023-03-31T11:56:14;15.40;67.70
19050;DHT22;9657;45.940;12.840;2023-03-31T11:58:45;15.40;67.70
19050;DHT22;9657;45.940;12.840;2023-03-31T12:01:18;15.40;67.70
19050;DHT22;9657;45.940;12.840;2023-03-31T12:03:54;15.40;67.70
19050;DHT22;9657;45.940;12.840;2023-03-31T12:06:24;15.40;67.70
19050;DHT22;9657;45.940;12.840;2023-03-31T12:09:02;15.40;67.70
19050;DHT22;9657;45.940;12.840;2023-03-31T12:11:37;15.40;67.70
19050;DHT22;9657;45.940;12.840;2023-03-31T12:14:14;15.40;68.50
19050;DHT22;9657;45.940;12.840;2023-03-31T12:16:47;15.40;67.70
19050;DHT22;9657;45.940;12.840;2023-03-31T12:19:19;15.40;67.70
19050;DHT22;9657;45.940;12.840;2023-03-31T12:21:50;15.40;67.80
19050;DHT22;9657;45.940;12.840;2023-03-31T12:24:18;15.40;67.80
19050;DHT22;9657;45.940;12.840;2023-03-31T12:26:53;15.40;67.80
19050;DHT22;9657;45.940;12.840;2023-03-31T12:29:28;15.40;67.80
19050;DHT22;9657;45.940;12.840;2023-03-31T12:31:58;15.40;67.80
19050;DHT22;9657;45.940;12.840;2023-03-31T12:34:28;15.40;67.80
19050;DHT22;9657;45.940;12.840;2023-03-31T12:37:05;15.40;67.70
19050;DHT22;9657;45.940;12.840;2023-03-31T12:39:44;15.40;67.80
19050;DHT22;9657;45.940;12.840;2023-03-31T12:42:37;15.40;67.80
19050;DHT22;9657;45.940;12.840;2023-03-31T12:45:11;15.40;67.80
19050;DHT22;9657;45.940;12.840;2023-03-31T12:47:52;15.40;67.80
19050;DHT22;9657;45.940;12.840;2023-03-31T12:50:37;15.40;67.80
19050;DHT22;9657;45.940;12.840;2023-03-31T12:53:15;15.40;67.90
19050;DHT22;9657;45.940;12.840;2023-03-31T12:55:46;15.40;67.80
19050;DHT22;9657;45.940;12.840;2023-03-31T12:58:40;15.40;67.90
19050;DHT22;9657;45.940;12.840;2023-03-31T13:01:10;15.40;67.80
19050;DHT22;9657;45.940;12.840;2023-03-31T13:03:47;15.40;67.80
19050;DHT22;9657;45.940;12.840;2023-03-31T13:09:56;15.40;67.80
19050;DHT22;9657;45.940;12.840;2023-03-31T13:12:24;15.40;67.80
19050;DHT22;9657;45.940;12.840;2023-03-31T13:14:53;15.40;67.80
19050;DHT22;9657;45.940;12.840;2023-03-31T13:17:26;15.40;67.80
19050;DHT22;9657;45.940;12.840;2023-03-31T13:19:55;15.40;67.90
19050;DHT22;9657;45.940;12.840;2023-03-31T13:22:31;15.40;67.80
19050;DHT22;9657;45.940;12.840;2023-03-31T13:30:58;15.40;68.60
19050;DHT22;9657;45.940;12.840;2023-03-31T13:33:46;15.40;67.80
19050;DHT22;9657;45.940;12.840;2023-03-31T13:36:47;15.40;67.80
19050;DHT22;9657;45.940;12.840;2023-03-31T13:42:52;15.40;67.90
19050;DHT22;9657;45.940;12.840;2023-03-31T13:45:43;15.40;67.80
19050;DHT22;9657;45.940;12.840;2023-03-31T13:51:19;15.50;68.00
19050;DHT22;9657;45.940;12.840;2023-03-31T13:56:59;15.40;67.90
19050;DHT22;9657;45.940;12.840;2023-03-31T14:00:07;15.40;67.90
19050;DHT22;9657;45.940;12.840;2023-03-31T14:02:50;15.40;67.80
19050;DHT22;9657;45.940;12.840;2023-03-31T14:05:27;15.50;68.00
19050;DHT22;9657;45.940;12.840;2023-03-31T14:07:57;15.40;67.90
19050;DHT22;9657;45.940;12.840;2023-03-31T14:10:28;15.50;67.90
19050;DHT22;9657;45.940;12.840;2023-03-31T14:13:06;15.50;67.90
19050;DHT22;9657;45.940;12.840;2023-03-31T14:15:35;15.50;67.90
19050;DHT22;9657;45.940;12.840;2023-03-31T14:18:05;15.50;67.90
19050;DHT22;9657;45.940;12.840;2023-03-31T14:20:49;15.40;67.90
19050;DHT22;9657;45.940;12.840;2023-03-31T14:23:26;15.50;67.90
19050;DHT22;9657;45.940;12.840;2023-03-31T14:26:01;15.50;67.90
19050;DHT22;9657;45.940;12.840;2023-03-31T14:28:59;15.40;67.80
19050;DHT22;9657;45.940;12.840;2023-03-31T14:31:31;15.50;67.90
19050;DHT22;9657;45.940;12.840;2023-03-31T14:37:09;15.50;68.00
19050;DHT22;9657;45.940;12.840;2023-03-31T14:39:40;15.50;68.00
19050;DHT22;9657;45.940;12.840;2023-03-31T14:42:11;15.50;68.00
19050;DHT22;9657;45.940;12.840;2023-03-31T14:44:39;15.40;67.90
19050;DHT22;9657;45.940;12.840;2023-03-31T14:47:13;15.40;67.80
19050;DHT22;9657;45.940;12.840;2023-03-31T14:49:42;15.40;67.80
19050;DHT22;9657;45.940;12.840;2023-03-31T14:52:14;15.50;68.00
19050;DHT22;9657;45.940;12.840;2023-03-31T14:54:44;15.40;67.90
19050;DHT22;9657;45.940;12.840;2023-03-31T14:57:15;15.50;68.00
19050;DHT22;9657;45.940;12.840;2023-03-31T14:59:43;15.50;68.00
19050;DHT22;9657;45.940;12.840;2023-03-31T15:02:15;15.50;68.00
19050;DHT22;9657;45.940;12.840;2023-03-31T15:04:47;15.50;67.90
19050;DHT22;9657;45.940;12.840;2023-03-31T15:07:16;15.50;68.00
19050;DHT22;9657;45.940;12.840;2023-03-31T15:09:47;15.50;68.00
19050;DHT22;9657;45.940;12.840;2023-03-31T15:12:17;15.40;67.90
19050;DHT22;9657;45.940;12.840;2023-03-31T15:14:47;15.50;67.90
19050;DHT22;9657;45.940;12.840;2023-03-31T15:17:20;15.50;68.00
19050;DHT22;9657;45.940;12.840;2023-03-31T15:19:53;15.40;67.90
19050;DHT22;9657;45.940;12.840;2023-03-31T15:22:23;15.40;67.90
19050;DHT22;9657;45.940;12.840;2023-03-31T15:24:51;15.50;68.00
19050;DHT22;9657;45.940;12.840;2023-03-31T15:27:26;15.50;68.00
19050;DHT22;9657;45.940;12.840;2023-03-31T15:29:54;15.40;67.80
19050;DHT22;9657;45.940;12.840;2023-03-31T15:32:24;15.50;68.00
19050;DHT22;9657;45.940;12.840;2023-03-31T15:34:54;15.40;67.90
19050;DHT22;9657;45.940;12.840;2023-03-31T15:37:24;15.40;67.90
19050;DHT22;9657;45.940;12.840;2023-03-31T15:39:55;15.50;68.00
19050;DHT22;9657;45.940;12.840;2023-03-31T15:42:23;15.40;67.90
19050;DHT22;9657;45.940;12.840;2023-03-31T15:44:55;15.40;67.90
19050;DHT22;9657;45.940;12.840;2023-03-31T15:47:23;15.50;68.00
19050;DHT22;9657;45.940;12.840;2023-03-31T15:49:57;15.50;68.00
19050;DHT22;9657;45.940;12.840;2023-03-31T15:52:28;15.40;67.90
19050;DHT22;9657;45.940;12.840;2023-03-31T15:54:57;15.40;68.00
19050;DHT22;9657;45.940;12.840;2023-03-31T15:57:31;15.40;67.90
19050;DHT22;9657;45.940;12.840;2023-03-31T15:59:58;15.40;67.90
19050;DHT22;9657;45.940;12.840;2023-03-31T16:02:29;15.40;67.90
19050;DHT22;9657;45.940;12.840;2023-03-31T16:05:03;15.50;68.00
19050;DHT22;9657;45.940;12.840;2023-03-31T16:07:33;15.40;67.90
19050;DHT22;9657;45.940;12.840;2023-03-31T16:10:03;15.40;67.90
19050;DHT22;9657;45.940;12.840;2023-03-31T16:12:35;15.40;68.00
19050;DHT22;9657;45.940;12.840;2023-03-31T16:15:06;15.40;67.80
19050;DHT22;9657;45.940;12.840;2023-03-31T16:17:37;15.40;67.90
19050;DHT22;9657;45.940;12.840;2023-03-31T16:20:15;15.40;67.90
19050;DHT22;9657;45.940;12.840;2023-03-31T16:22:46;15.40;67.90
19050;DHT22;9657;45.940;12.840;2023-03-31T16:25:17;15.40;68.00
19050;DHT22;9657;45.940;12.840;2023-03-31T16:27:48;15.40;68.00
19050;DHT22;9657;45.940;12.840;2023-03-31T16:30:18;15.40;67.90
19050;DHT22;9657;45.940;12.840;2023-03-31T16:32:58;15.40;68.00